Time;durP1;ratioP1;P1;durP2;ratioP2;P2;SDS_P1;SDS_P2;PMS_P1;PMS_P2;Temp;Humidity;BMP_temperature;BMP_pressure;BME280_temperature;BME280_humidity;BME280_pressure;Samples;Min_cycle;Max_cycle;Signal;HPM_P1;HPM_P2
2022/03/30 00:04:40;;;;;;;9.68;6.75;;;;;;;;;;10369168;28;20026;-43
2022/03/30 00:09:41;;;;;;;11.43;6.60;;;;;;;;;;10369458;28;20057;-44
2022/03/30 00:14:42;;;;;;;9.65;6.45;;;;;;;;;;10368585;28;20487;-43
2022/03/30 00:19:43;;;;;;;9.85;6.40;;;;;;;;;;10367901;28;20018;-44
2022/03/30 00:24:47;;;;;;;9.45;6.55;;;;;;;;;;10368840;28;20262;-43
2022/03/30 00:29:48;;;;;;;13.27;6.43;;;;;;;;;;10368725;28;20040;-43
2022/03/30 00:34:49;;;;;;;9.88;6.28;;;;;;;;;;10368533;28;20497;-42
2022/03/30 00:39:52;;;;;;;8.60;6.25;;;;;;;;;;10368156;28;20061;-43
2022/03/30 00:44:53;;;;;;;8.63;6.22;;;;;;;;;;10368343;28;20112;-42
2022/03/30 00:49:54;;;;;;;7.13;5.68;;;;;;;;;;10368559;28;20049;-42
2022/03/30 00:54:57;;;;;;;7.70;5.63;;;;;;;;;;10367911;28;20022;-43
2022/03/30 00:59:58;;;;;;;9.77;5.47;;;;;;;;;;10350578;28;20030;-43
2022/03/30 01:05:00;;;;;;;7.82;5.72;;;;;;;;;;10367713;28;20029;-43
2022/03/30 01:10:03;;;;;;;8.68;5.22;;;;;;;;;;10367772;28;20041;-42
2022/03/30 01:15:06;;;;;;;6.97;5.55;;;;;;;;;;10367845;28;20030;-44
2022/03/30 01:20:10;;;;;;;10.60;5.75;;;;;;;;;;10367428;28;20034;-44
2022/03/30 01:25:11;;;;;;;9.73;5.65;;;;;;;;;;10366508;28;20392;-44
2022/03/30 01:35:35;;;;;;;7.43;5.10;;;;;;;;;;10372497;28;20030;-43
2022/03/30 01:40:38;;;;;;;9.23;5.05;;;;;;;;;;10374619;28;20049;-43
2022/03/30 01:45:38;;;;;;;7.78;5.07;;;;;;;;;;10374946;28;20034;-43
2022/03/30 01:50:39;;;;;;;7.50;5.38;;;;;;;;;;10375404;28;20057;-43
2022/03/30 01:55:40;;;;;;;6.85;5.10;;;;;;;;;;10374703;28;20031;-43
2022/03/30 02:00:41;;;;;;;9.38;5.20;;;;;;;;;;10375187;28;20030;-62
2022/03/30 02:05:42;;;;;;;6.43;4.82;;;;;;;;;;10374402;28;20029;-64
2022/03/30 02:10:42;;;;;;;5.85;4.88;;;;;;;;;;10374687;28;20026;-68
2022/03/30 02:15:43;;;;;;;7.05;5.35;;;;;;;;;;10374098;28;20026;-65
2022/03/30 02:20:44;;;;;;;10.15;5.32;;;;;;;;;;10373767;28;20034;-69
2022/03/30 02:25:44;;;;;;;5.80;4.60;;;;;;;;;;10373974;28;20170;-69
2022/03/30 02:30:45;;;;;;;5.38;4.78;;;;;;;;;;10373852;28;20457;-70
2022/03/30 02:35:46;;;;;;;6.70;4.82;;;;;;;;;;10373902;28;20481;-69
2022/03/30 02:40:46;;;;;;;5.75;4.70;;;;;;;;;;10372138;28;20378;-68
2022/03/30 02:45:47;;;;;;;6.95;4.88;;;;;;;;;;10372735;28;20033;-69
2022/03/30 02:50:52;;;;;;;7.90;4.78;;;;;;;;;;10372663;28;20026;-63
2022/03/30 02:55:53;;;;;;;7.30;4.90;;;;;;;;;;10372353;28;20026;-69
2022/03/30 03:00:54;;;;;;;6.28;4.75;;;;;;;;;;10372343;28;20025;-44
2022/03/30 03:05:55;;;;;;;5.93;4.45;;;;;;;;;;10371988;28;20034;-44
2022/03/30 03:10:56;;;;;;;5.30;4.80;;;;;;;;;;10371934;28;20025;-45
2022/03/30 03:15:57;;;;;;;4.85;4.15;;;;;;;;;;10372031;28;20053;-44
2022/03/30 03:20:57;;;;;;;5.95;4.55;;;;;;;;;;10371259;28;20033;-46
2022/03/30 03:25:58;;;;;;;5.47;4.63;;;;;;;;;;10371632;28;20026;-44
2022/03/30 03:30:59;;;;;;;4.50;4.05;;;;;;;;;;10370974;28;20025;-43
2022/03/30 03:35:59;;;;;;;7.20;3.92;;;;;;;;;;10370966;28;20114;-44
2022/03/30 03:41:00;;;;;;;8.77;4.35;;;;;;;;;;10370559;28;20189;-44
2022/03/30 03:46:00;;;;;;;9.38;4.35;;;;;;;;;;10370394;28;20030;-44
2022/03/30 03:51:01;;;;;;;4.95;4.13;;;;;;;;;;10370325;28;20266;-44
2022/03/30 03:56:05;;;;;;;6.88;4.07;;;;;;;;;;10369983;28;20045;-44
2022/03/30 04:01:06;;;;;;;4.88;3.88;;;;;;;;;;10369934;28;20037;-44
2022/03/30 04:06:06;;;;;;;4.70;3.88;;;;;;;;;;10370115;28;20025;-44
2022/03/30 04:11:07;;;;;;;4.28;3.67;;;;;;;;;;10370051;28;20026;-44
2022/03/30 04:16:08;;;;;;;6.45;4.43;;;;;;;;;;10369434;28;20018;-44
2022/03/30 04:21:10;;;;;;;6.30;4.30;;;;;;;;;;10369000;28;20037;-44
2022/03/30 04:26:11;;;;;;;4.43;3.90;;;;;;;;;;10369462;28;20045;-45
2022/03/30 04:31:12;;;;;;;5.20;4.15;;;;;;;;;;10368891;28;20029;-44
2022/03/30 04:36:13;;;;;;;4.93;3.78;;;;;;;;;;10368438;28;20495;-45
2022/03/30 04:41:14;;;;;;;5.18;4.10;;;;;;;;;;10368317;28;20054;-44
2022/03/30 04:46:14;;;;;;;7.50;4.20;;;;;;;;;;10368334;28;20034;-44
2022/03/30 04:51:15;;;;;;;5.18;3.72;;;;;;;;;;10368120;28;20030;-44
2022/03/30 04:56:16;;;;;;;6.45;3.90;;;;;;;;;;10368479;28;20030;-45
2022/03/30 05:01:17;;;;;;;4.43;3.67;;;;;;;;;;10366655;28;20036;-44
2022/03/30 05:06:17;;;;;;;5.47;3.95;;;;;;;;;;10367185;28;20080;-44
2022/03/30 05:11:18;;;;;;;5.35;3.83;;;;;;;;;;10367705;28;20033;-48
2022/03/30 05:16:19;;;;;;;9.55;3.80;;;;;;;;;;10366433;28;20050;-44
2022/03/30 05:21:19;;;;;;;5.18;3.63;;;;;;;;;;10366977;28;20029;-47
2022/03/30 05:26:20;;;;;;;9.38;4.05;;;;;;;;;;10367262;28;20030;-60
2022/03/30 05:31:21;;;;;;;4.05;3.40;;;;;;;;;;10364982;28;20033;-44
2022/03/30 05:36:21;;;;;;;6.15;3.70;;;;;;;;;;10367891;28;20092;-44
2022/03/30 05:41:22;;;;;;;7.53;3.20;;;;;;;;;;10366409;28;20049;-47
2022/03/30 05:46:22;;;;;;;10.98;3.70;;;;;;;;;;10361997;28;20030;-60
2022/03/30 05:51:24;;;;;;;7.97;4.45;;;;;;;;;;10361862;28;20037;-45
2022/03/30 06:02:02;;;;;;;12.02;4.05;;;;;;;;;;10160040;29;20055;-45
2022/03/30 06:07:03;;;;;;;9.90;4.55;;;;;;;;;;10158025;29;20039;-61
2022/03/30 06:12:05;;;;;;;12.68;4.70;;;;;;;;;;10163573;29;20047;-44
2022/03/30 06:17:07;;;;;;;10.88;4.30;;;;;;;;;;10149133;29;20040;-60
2022/03/30 06:22:11;;;;;;;19.65;5.25;;;;;;;;;;10204097;29;20496;-47
2022/03/30 06:27:14;;;;;;;24.65;5.55;;;;;;;;;;10187276;29;20195;-43
2022/03/30 06:32:14;;;;;;;17.27;5.63;;;;;;;;;;10162950;28;20124;-44
2022/03/30 06:37:15;;;;;;;24.40;5.07;;;;;;;;;;10367287;28;20025;-44
2022/03/30 06:42:19;;;;;;;23.20;5.13;;;;;;;;;;10373055;28;20042;-44
2022/03/30 06:47:20;;;;;;;20.02;5.30;;;;;;;;;;10372584;28;20034;-46
2022/03/30 06:52:20;;;;;;;21.52;5.28;;;;;;;;;;10372595;28;20389;-45
2022/03/30 06:57:21;;;;;;;17.40;4.78;;;;;;;;;;10371805;28;20116;-44
2022/03/30 07:02:22;;;;;;;20.63;4.93;;;;;;;;;;10372030;28;20030;-46
2022/03/30 07:12:47;;;;;;;10.68;4.70;;;;;;;;;;10371719;28;20485;-46
2022/03/30 07:17:58;;;;;;;10.88;4.68;;;;;;;;;;10371163;28;20049;-43
2022/03/30 07:22:59;;;;;;;15.98;5.20;;;;;;;;;;10371598;28;20018;-43
2022/03/30 07:28:02;;;;;;;13.90;4.45;;;;;;;;;;10370241;28;20026;-51
2022/03/30 07:33:03;;;;;;;10.25;4.18;;;;;;;;;;10370788;28;20048;-46
2022/03/30 07:38:04;;;;;;;10.80;4.05;;;;;;;;;;10370266;28;20140;-44
2022/03/30 07:43:04;;;;;;;8.10;4.75;;;;;;;;;;10370726;28;20061;-49
2022/03/30 07:48:06;;;;;;;7.13;4.05;;;;;;;;;;10370211;28;20355;-46
2022/03/30 07:53:08;;;;;;;13.50;4.25;;;;;;;;;;10370711;28;20030;-44
2022/03/30 07:58:08;;;;;;;7.55;3.95;;;;;;;;;;10369806;28;20030;-44
2022/03/30 08:03:09;;;;;;;11.50;4.80;;;;;;;;;;10369704;28;20029;-49
2022/03/30 08:08:10;;;;;;;12.43;4.35;;;;;;;;;;10369426;28;20030;-46
2022/03/30 08:13:12;;;;;;;12.38;3.95;;;;;;;;;;10369534;28;20032;-47
2022/03/30 08:18:14;;;;;;;14.27;4.50;;;;;;;;;;10368975;28;20294;-44
2022/03/30 08:23:14;;;;;;;9.77;4.47;;;;;;;;;;10368952;28;20026;-52
2022/03/30 08:28:15;;;;;;;8.02;4.30;;;;;;;;;;10368612;28;20469;-47
2022/03/30 08:33:18;;;;;;;8.57;4.53;;;;;;;;;;10368580;28;20116;-43
2022/03/30 08:38:20;;;;;;;10.23;4.88;;;;;;;;;;10367365;28;20382;-43
2022/03/30 08:43:22;;;;;;;8.25;4.63;;;;;;;;;;10368437;28;20030;-50
2022/03/30 08:48:22;;;;;;;10.13;4.28;;;;;;;;;;10368135;28;20080;-48
2022/03/30 08:53:26;;;;;;;5.93;4.05;;;;;;;;;;10368034;28;20351;-45
2022/03/30 08:58:27;;;;;;;17.27;4.47;;;;;;;;;;10367625;28;20068;-48
2022/03/30 09:03:27;;;;;;;11.98;4.32;;;;;;;;;;10367684;28;20018;-48
2022/03/30 09:08:28;;;;;;;10.07;4.03;;;;;;;;;;10367482;28;20363;-52
2022/03/30 09:13:29;;;;;;;8.02;4.28;;;;;;;;;;10367618;28;20026;-43
2022/03/30 09:18:29;;;;;;;10.70;4.60;;;;;;;;;;10367007;28;20037;-46
2022/03/30 09:23:30;;;;;;;10.52;4.35;;;;;;;;;;10367221;28;20474;-46
2022/03/30 09:28:31;;;;;;;9.93;4.32;;;;;;;;;;10367058;28;20037;-46
2022/03/30 09:33:32;;;;;;;8.30;4.00;;;;;;;;;;10366991;28;20067;-44
2022/03/30 09:38:38;;;;;;;8.18;4.15;;;;;;;;;;10363218;28;20784;-46
2022/03/30 09:43:41;;;;;;;14.18;4.70;;;;;;;;;;10366491;28;20076;-47
2022/03/30 09:48:52;;;;;;;12.75;4.88;;;;;;;;;;10368906;28;20620;-47
2022/03/30 09:53:53;;;;;;;8.98;4.70;;;;;;;;;;10374904;28;20424;-48
2022/03/30 09:59:01;;;;;;;7.68;3.90;;;;;;;;;;10374375;28;20052;-59
2022/03/30 10:04:08;;;;;;;7.57;3.42;;;;;;;;;;10374109;28;20034;-43
2022/03/30 10:09:08;;;;;;;9.85;4.35;;;;;;;;;;10372391;28;20485;-46
2022/03/30 10:14:09;;;;;;;9.73;4.22;;;;;;;;;;10372604;28;20033;-44
2022/03/30 10:19:10;;;;;;;10.05;4.10;;;;;;;;;;10370506;28;20038;-43
2022/03/30 10:24:56;;;;;;;7.90;4.13;;;;;;;;;;10371096;28;20037;-47
2022/03/30 10:30:04;;;;;;;9.02;4.63;;;;;;;;;;10339293;28;20042;-47
2022/03/30 10:35:13;;;;;;;7.67;4.00;;;;;;;;;;10370567;28;20281;-45
2022/03/30 10:40:24;;;;;;;8.05;4.13;;;;;;;;;;10371686;28;20306;-46
2022/03/30 10:45:43;;;;;;;7.78;4.05;;;;;;;;;;10373044;28;20076;-43
2022/03/30 10:51:10;;;;;;;10.77;4.10;;;;;;;;;;10371987;28;20109;-47
2022/03/30 10:56:21;;;;;;;6.38;4.07;;;;;;;;;;10369803;28;20064;-45
2022/03/30 11:01:29;;;;;;;6.68;3.88;;;;;;;;;;10394485;28;20037;-48
2022/03/30 11:06:34;;;;;;;10.70;4.30;;;;;;;;;;10379120;28;20034;-45
2022/03/30 11:11:40;;;;;;;6.18;3.88;;;;;;;;;;10370085;28;20061;-49
2022/03/30 11:16:50;;;;;;;6.63;3.95;;;;;;;;;;10398547;28;20453;-46
2022/03/30 11:22:07;;;;;;;5.93;4.05;;;;;;;;;;10378663;28;20034;-44
2022/03/30 11:27:08;;;;;;;5.32;4.10;;;;;;;;;;10367765;28;20216;-44
2022/03/30 11:32:30;;;;;;;8.73;4.53;;;;;;;;;;10369345;28;20194;-47
2022/03/30 11:37:38;;;;;;;5.53;4.05;;;;;;;;;;10360193;28;20042;-44
2022/03/30 11:42:53;;;;;;;9.02;4.85;;;;;;;;;;10360502;28;20081;-48
2022/03/30 11:47:58;;;;;;;8.05;4.03;;;;;;;;;;10359241;28;20030;-47
2022/03/30 11:53:09;;;;;;;8.75;3.97;;;;;;;;;;10360526;28;20030;-59
2022/03/30 11:58:10;;;;;;;6.57;4.47;;;;;;;;;;10365782;28;20034;-48
2022/03/30 12:03:11;;;;;;;8.80;4.97;;;;;;;;;;10349320;28;20392;-45
2022/03/30 12:08:12;;;;;;;13.77;4.57;;;;;;;;;;10361439;28;20049;-49
2022/03/30 12:13:19;;;;;;;11.77;4.65;;;;;;;;;;10366679;28;20025;-52
2022/03/30 12:18:20;;;;;;;8.82;4.32;;;;;;;;;;10351209;28;20030;-43
2022/03/30 12:23:20;;;;;;;6.75;4.40;;;;;;;;;;10368170;28;20496;-43
2022/03/30 12:28:32;;;;;;;9.13;3.67;;;;;;;;;;10367688;28;20037;-43
2022/03/30 12:33:45;;;;;;;7.35;4.20;;;;;;;;;;10367853;28;20100;-46
2022/03/30 12:38:51;;;;;;;8.20;4.53;;;;;;;;;;10367370;28;20050;-44
2022/03/30 12:44:00;;;;;;;5.18;3.90;;;;;;;;;;10367213;28;20033;-55
2022/03/30 12:49:06;;;;;;;5.55;3.95;;;;;;;;;;10365019;28;20022;-47
2022/03/30 12:54:21;;;;;;;5.50;3.88;;;;;;;;;;10360826;28;20045;-46
2022/03/30 12:59:24;;;;;;;8.73;4.30;;;;;;;;;;10365499;28;20029;-45
2022/03/30 13:04:30;;;;;;;8.80;4.32;;;;;;;;;;10362658;28;20065;-48
2022/03/30 13:09:30;;;;;;;14.35;5.53;;;;;;;;;;10363912;28;20045;-49
2022/03/30 13:14:31;;;;;;;12.75;4.18;;;;;;;;;;10365108;28;20461;-49
2022/03/30 13:19:32;;;;;;;9.48;4.20;;;;;;;;;;10362687;28;20488;-44
2022/03/30 13:24:33;;;;;;;9.05;4.55;;;;;;;;;;10366006;28;20040;-49
2022/03/30 13:29:34;;;;;;;8.45;4.25;;;;;;;;;;10362060;28;20018;-56
2022/03/30 13:34:35;;;;;;;7.93;4.47;;;;;;;;;;10365296;28;20164;-59
2022/03/30 13:39:35;;;;;;;8.00;3.90;;;;;;;;;;10365291;28;20096;-46
2022/03/30 13:44:36;;;;;;;7.15;4.22;;;;;;;;;;10365134;28;20034;-55
2022/03/30 13:49:44;;;;;;;9.75;4.97;;;;;;;;;;10366300;28;20354;-44
2022/03/30 13:54:44;;;;;;;9.17;4.43;;;;;;;;;;10333896;28;20049;-44
2022/03/30 13:59:45;;;;;;;10.10;4.28;;;;;;;;;;10364697;28;20030;-49
2022/03/30 14:04:46;;;;;;;11.23;4.70;;;;;;;;;;10363734;28;20038;-52
2022/03/30 14:09:46;;;;;;;20.52;4.55;;;;;;;;;;10363419;28;20035;-47
2022/03/30 14:14:47;;;;;;;10.40;4.85;;;;;;;;;;10363660;28;20022;-49
2022/03/30 14:19:48;;;;;;;12.48;4.88;;;;;;;;;;10364601;28;20466;-47
2022/03/30 14:24:49;;;;;;;7.25;4.32;;;;;;;;;;10365098;28;20038;-49
2022/03/30 14:29:49;;;;;;;7.30;4.28;;;;;;;;;;10363831;28;20026;-43
2022/03/30 14:34:52;;;;;;;11.68;5.07;;;;;;;;;;10389083;28;20021;-46
2022/03/30 14:39:53;;;;;;;7.50;4.85;;;;;;;;;;10370414;28;20049;-44
2022/03/30 14:44:54;;;;;;;6.45;4.40;;;;;;;;;;10368167;28;20026;-59
2022/03/30 14:49:54;;;;;;;9.25;4.75;;;;;;;;;;10367330;28;20032;-48
2022/03/30 14:54:56;;;;;;;8.48;4.47;;;;;;;;;;10368070;28;20033;-44
2022/03/30 14:59:57;;;;;;;9.68;4.07;;;;;;;;;;10368307;28;20034;-43
2022/03/30 15:04:58;;;;;;;16.83;4.20;;;;;;;;;;10372074;28;20462;-47
2022/03/30 15:09:59;;;;;;;6.10;4.00;;;;;;;;;;10369947;28;20028;-49
2022/03/30 15:15:00;;;;;;;8.88;4.68;;;;;;;;;;10368390;28;20053;-49
2022/03/30 15:20:00;;;;;;;9.80;4.35;;;;;;;;;;10369816;28;20100;-44
2022/03/30 15:25:02;;;;;;;9.43;5.20;;;;;;;;;;10366230;28;20482;-44
2022/03/30 15:30:07;;;;;;;8.18;4.60;;;;;;;;;;10372534;28;20032;-44
2022/03/30 15:35:08;;;;;;;8.55;4.63;;;;;;;;;;10336923;28;20044;-47
2022/03/30 15:40:13;;;;;;;11.57;4.60;;;;;;;;;;10366519;28;20041;-43
2022/03/30 15:45:16;;;;;;;8.77;4.35;;;;;;;;;;10367480;28;20033;-44
2022/03/30 15:50:16;;;;;;;7.50;5.05;;;;;;;;;;10367218;28;20036;-43
2022/03/30 15:55:22;;;;;;;7.90;4.50;;;;;;;;;;10367572;28;20037;-44
2022/03/30 16:00:23;;;;;;;8.70;4.90;;;;;;;;;;10367978;28;20117;-44
2022/03/30 16:05:24;;;;;;;10.18;5.07;;;;;;;;;;10366460;28;20022;-44
2022/03/30 16:10:26;;;;;;;7.78;4.25;;;;;;;;;;10367929;28;20021;-44
2022/03/30 16:15:27;;;;;;;9.30;4.30;;;;;;;;;;10367241;28;20041;-44
2022/03/30 16:20:29;;;;;;;6.53;4.35;;;;;;;;;;10366970;28;20374;-43
2022/03/30 16:25:29;;;;;;;9.40;4.93;;;;;;;;;;10351611;28;20034;-44
2022/03/30 16:30:31;;;;;;;6.38;4.50;;;;;;;;;;10366924;28;20036;-44
2022/03/30 16:35:33;;;;;;;6.55;4.40;;;;;;;;;;10366568;28;20061;-43
2022/03/30 16:40:34;;;;;;;8.18;4.50;;;;;;;;;;10362739;28;20054;-60
2022/03/30 16:45:38;;;;;;;26.00;5.53;;;;;;;;;;10364813;28;20025;-43
2022/03/30 16:50:39;;;;;;;19.77;5.43;;;;;;;;;;10363830;28;20049;-43
2022/03/30 16:55:40;;;;;;;23.00;5.10;;;;;;;;;;10365545;28;20382;-44
2022/03/30 17:00:40;;;;;;;15.68;5.00;;;;;;;;;;10366491;28;20041;-42
2022/03/30 17:05:42;;;;;;;11.65;4.93;;;;;;;;;;10366537;28;20030;-55
2022/03/30 17:10:43;;;;;;;11.02;4.68;;;;;;;;;;10363742;28;20042;-42
2022/03/30 17:15:44;;;;;;;8.95;4.38;;;;;;;;;;10363635;28;20060;-48
2022/03/30 17:20:44;;;;;;;5.90;4.28;;;;;;;;;;10366379;28;20045;-42
2022/03/30 17:25:45;;;;;;;15.93;5.35;;;;;;;;;;10363680;28;20055;-42
2022/03/30 17:30:45;;;;;;;11.93;4.55;;;;;;;;;;10366417;28;20519;-42
2022/03/30 17:35:46;;;;;;;12.02;4.88;;;;;;;;;;10362330;28;20065;-45
2022/03/30 17:40:47;;;;;;;8.52;5.10;;;;;;;;;;10366517;28;20590;-62
2022/03/30 17:45:49;;;;;;;7.40;3.97;;;;;;;;;;10365855;28;20080;-42
2022/03/30 17:56:10;;;;;;;9.25;4.70;;;;;;;;;;10360754;28;20022;-43
2022/03/30 18:01:11;;;;;;;6.35;4.60;;;;;;;;;;10365145;28;20046;-42
2022/03/30 18:06:12;;;;;;;11.98;4.13;;;;;;;;;;10366390;28;20607;-42
2022/03/30 18:11:15;;;;;;;11.80;4.95;;;;;;;;;;10370804;28;20212;-42
2022/03/30 18:16:15;;;;;;;7.07;4.53;;;;;;;;;;10372239;28;20254;-42
2022/03/30 18:21:16;;;;;;;4.75;4.10;;;;;;;;;;10372926;28;20557;-43
2022/03/30 18:26:17;;;;;;;6.70;4.70;;;;;;;;;;10372366;28;20505;-42
2022/03/30 18:31:17;;;;;;;14.40;4.30;;;;;;;;;;10371867;28;20445;-48
2022/03/30 18:36:19;;;;;;;11.90;4.70;;;;;;;;;;10372701;28;20042;-45
2022/03/30 18:41:22;;;;;;;6.88;4.35;;;;;;;;;;10371652;28;20064;-43
2022/03/30 18:46:22;;;;;;;7.85;4.63;;;;;;;;;;10372199;28;20468;-42
2022/03/30 18:51:23;;;;;;;9.10;4.72;;;;;;;;;;10368192;28;20041;-59
2022/03/30 18:56:24;;;;;;;11.25;4.90;;;;;;;;;;10367790;28;20108;-44
2022/03/30 19:01:25;;;;;;;10.48;4.28;;;;;;;;;;10369360;28;20042;-46
2022/03/30 19:06:25;;;;;;;8.13;4.38;;;;;;;;;;10369879;28;20378;-44
2022/03/30 19:11:27;;;;;;;7.28;4.70;;;;;;;;;;10367863;28;20044;-44
2022/03/30 19:16:30;;;;;;;10.85;4.00;;;;;;;;;;10369970;28;20485;-43
2022/03/30 19:21:30;;;;;;;9.10;4.32;;;;;;;;;;10370266;28;20405;-44
2022/03/30 19:26:33;;;;;;;13.70;5.03;;;;;;;;;;10370861;28;20026;-43
2022/03/30 19:31:34;;;;;;;6.20;4.13;;;;;;;;;;10371556;28;20289;-46
2022/03/30 19:36:35;;;;;;;10.65;4.95;;;;;;;;;;10370602;28;20333;-43
2022/03/30 19:41:36;;;;;;;7.22;4.60;;;;;;;;;;10370278;28;20489;-44
2022/03/30 19:46:37;;;;;;;9.30;5.25;;;;;;;;;;10370398;28;20536;-44
2022/03/30 19:51:38;;;;;;;8.00;4.53;;;;;;;;;;10353154;28;20029;-44
2022/03/30 19:56:40;;;;;;;9.50;4.68;;;;;;;;;;10353460;28;20486;-52
2022/03/30 20:01:40;;;;;;;11.60;4.50;;;;;;;;;;10364161;28;20072;-61
2022/03/30 20:06:44;;;;;;;10.55;4.38;;;;;;;;;;10368876;28;20121;-52
2022/03/30 20:11:45;;;;;;;8.68;4.82;;;;;;;;;;10365740;28;20096;-57
2022/03/30 20:16:46;;;;;;;8.35;4.32;;;;;;;;;;10362426;28;20061;-58
2022/03/30 20:21:46;;;;;;;9.93;4.22;;;;;;;;;;10365263;28;20309;-57
2022/03/30 20:26:47;;;;;;;13.00;5.10;;;;;;;;;;10362904;28;20490;-51
2022/03/30 20:31:50;;;;;;;11.10;4.20;;;;;;;;;;10363292;28;20390;-50
2022/03/30 20:36:51;;;;;;;8.45;4.57;;;;;;;;;;10343484;28;20143;-55
2022/03/30 20:41:52;;;;;;;12.18;4.97;;;;;;;;;;10360137;28;20045;-55
2022/03/30 20:46:55;;;;;;;6.07;4.20;;;;;;;;;;10362480;28;20088;-51
2022/03/30 20:51:55;;;;;;;6.68;3.95;;;;;;;;;;10362196;28;20171;-61
2022/03/30 20:56:56;;;;;;;9.30;5.22;;;;;;;;;;10360040;28;20033;-61
2022/03/30 21:01:57;;;;;;;7.13;4.25;;;;;;;;;;10362823;28;20036;-43
2022/03/30 21:06:58;;;;;;;13.07;4.07;;;;;;;;;;10364623;28;20030;-42
2022/03/30 21:11:59;;;;;;;6.97;4.10;;;;;;;;;;10365832;28;20120;-43
2022/03/30 21:17:03;;;;;;;13.10;4.53;;;;;;;;;;10364875;28;20107;-43
2022/03/30 21:22:03;;;;;;;15.63;4.88;;;;;;;;;;10365157;28;20040;-43
2022/03/30 21:27:04;;;;;;;13.63;5.13;;;;;;;;;;10347689;28;20026;-42
2022/03/30 21:32:06;;;;;;;9.90;4.78;;;;;;;;;;10365229;28;20104;-43
2022/03/30 21:37:06;;;;;;;13.93;4.72;;;;;;;;;;10363958;28;20034;-44
2022/03/30 21:42:07;;;;;;;12.07;4.90;;;;;;;;;;10365080;28;20049;-43
2022/03/30 21:47:08;;;;;;;8.13;4.20;;;;;;;;;;10370491;28;20034;-44
2022/03/30 21:52:09;;;;;;;11.02;4.50;;;;;;;;;;10373018;28;20021;-44
2022/03/30 21:57:09;;;;;;;15.23;5.10;;;;;;;;;;10369710;28;20034;-43
2022/03/30 22:02:10;;;;;;;9.75;5.05;;;;;;;;;;10372997;28;20037;-43
2022/03/30 22:07:11;;;;;;;11.73;4.95;;;;;;;;;;10372363;28;20117;-43
2022/03/30 22:12:12;;;;;;;19.38;4.95;;;;;;;;;;10354879;28;20061;-43
2022/03/30 22:17:13;;;;;;;8.48;4.50;;;;;;;;;;10387511;28;20088;-43
2022/03/30 22:22:14;;;;;;;8.40;4.28;;;;;;;;;;10372055;28;20456;-43
2022/03/30 22:27:15;;;;;;;7.68;4.32;;;;;;;;;;10372047;28;20037;-43
2022/03/30 22:37:35;;;;;;;6.22;4.53;;;;;;;;;;10372635;28;20030;-43
2022/03/30 22:42:37;;;;;;;8.60;4.22;;;;;;;;;;10372289;28;20385;-43
2022/03/30 22:47:37;;;;;;;8.25;4.25;;;;;;;;;;10372600;28;20049;-62
2022/03/30 22:52:38;;;;;;;15.82;4.95;;;;;;;;;;10373163;28;20072;-67
2022/03/30 22:57:38;;;;;;;8.50;4.20;;;;;;;;;;10371530;28;20041;-43
2022/03/30 23:02:40;;;;;;;5.75;4.38;;;;;;;;;;10372951;28;20034;-43
2022/03/30 23:13:01;;;;;;;;;;;;;;;;;;10373121;28;20217;-43
2022/03/30 23:18:02;;;;;;;7.93;4.18;;;;;;;;;;10372325;28;20023;-43
2022/03/30 23:23:04;;;;;;;7.55;3.80;;;;;;;;;;10371809;28;20033;-43
2022/03/30 23:28:05;;;;;;;5.30;3.92;;;;;;;;;;10370178;28;20132;-43
2022/03/30 23:33:06;;;;;;;12.20;3.65;;;;;;;;;;10371877;28;20037;-43
2022/03/30 23:38:09;;;;;;;7.90;4.75;;;;;;;;;;10370867;28;20026;-43
2022/03/30 23:43:11;;;;;;;5.00;4.07;;;;;;;;;;10370739;28;20527;-44
2022/03/30 23:48:11;;;;;;;6.75;4.30;;;;;;;;;;10370902;28;20053;-43
2022/03/30 23:53:12;;;;;;;6.38;3.88;;;;;;;;;;10371031;28;20466;-42
2022/03/30 23:58:14;;;;;;;8.05;4.07;;;;;;;;;;10370289;28;20033;-44
